sensor_id;sensor_type;location;lat;lon;timestamp;temperature;humidity
15288;DHT22;7745;48.708;9.026;2023-10-19T00:02:45;11.50;99.90
15288;DHT22;7745;48.708;9.026;2023-10-19T00:05:10;11.60;99.90
15288;DHT22;7745;48.708;9.026;2023-10-19T00:07:40;11.60;99.90
15288;DHT22;7745;48.708;9.026;2023-10-19T00:10:07;11.60;99.90
15288;DHT22;7745;48.708;9.026;2023-10-19T00:12:35;11.60;99.90
15288;DHT22;7745;48.708;9.026;2023-10-19T00:15:02;11.70;99.90
15288;DHT22;7745;48.708;9.026;2023-10-19T00:17:30;11.80;99.90
15288;DHT22;7745;48.708;9.026;2023-10-19T00:19:58;11.90;99.90
15288;DHT22;7745;48.708;9.026;2023-10-19T00:22:47;12.00;99.90
15288;DHT22;7745;48.708;9.026;2023-10-19T00:25:13;12.10;99.90
15288;DHT22;7745;48.708;9.026;2023-10-19T00:27:40;12.40;99.90
15288;DHT22;7745;48.708;9.026;2023-10-19T00:30:09;12.10;99.90
15288;DHT22;7745;48.708;9.026;2023-10-19T00:32:36;12.20;99.90
15288;DHT22;7745;48.708;9.026;2023-10-19T00:35:05;12.30;99.90
15288;DHT22;7745;48.708;9.026;2023-10-19T00:37:54;12.30;99.90
15288;DHT22;7745;48.708;9.026;2023-10-19T00:40:24;12.30;99.90
15288;DHT22;7745;48.708;9.026;2023-10-19T00:43:03;12.60;99.90
15288;DHT22;7745;48.708;9.026;2023-10-19T00:45:32;12.40;99.90
15288;DHT22;7745;48.708;9.026;2023-10-19T00:48:06;12.30;99.90
15288;DHT22;7745;48.708;9.026;2023-10-19T00:50:37;12.30;99.90
15288;DHT22;7745;48.708;9.026;2023-10-19T00:53:06;12.40;99.90
15288;DHT22;7745;48.708;9.026;2023-10-19T00:55:34;12.40;99.90
15288;DHT22;7745;48.708;9.026;2023-10-19T00:58:03;12.40;99.90
15288;DHT22;7745;48.708;9.026;2023-10-19T01:00:35;12.50;99.90
15288;DHT22;7745;48.708;9.026;2023-10-19T01:03:10;12.40;99.90
15288;DHT22;7745;48.708;9.026;2023-10-19T01:05:43;12.30;99.90
15288;DHT22;7745;48.708;9.026;2023-10-19T01:08:15;13.10;99.90
15288;DHT22;7745;48.708;9.026;2023-10-19T01:10:50;12.60;99.90
15288;DHT22;7745;48.708;9.026;2023-10-19T01:13:19;13.10;99.90
15288;DHT22;7745;48.708;9.026;2023-10-19T01:15:53;12.60;99.90
15288;DHT22;7745;48.708;9.026;2023-10-19T01:18:20;12.70;99.90
15288;DHT22;7745;48.708;9.026;2023-10-19T01:20:47;12.80;99.90
15288;DHT22;7745;48.708;9.026;2023-10-19T01:23:17;12.60;99.90
15288;DHT22;7745;48.708;9.026;2023-10-19T01:25:51;12.60;99.90
15288;DHT22;7745;48.708;9.026;2023-10-19T01:28:27;12.70;99.90
15288;DHT22;7745;48.708;9.026;2023-10-19T01:31:07;12.60;99.90
15288;DHT22;7745;48.708;9.026;2023-10-19T01:33:41;12.80;99.90
15288;DHT22;7745;48.708;9.026;2023-10-19T01:36:09;12.60;99.90
15288;DHT22;7745;48.708;9.026;2023-10-19T01:38:41;12.50;99.90
15288;DHT22;7745;48.708;9.026;2023-10-19T01:41:08;12.60;99.90
15288;DHT22;7745;48.708;9.026;2023-10-19T01:43:40;12.60;99.90
15288;DHT22;7745;48.708;9.026;2023-10-19T01:46:06;12.60;99.90
15288;DHT22;7745;48.708;9.026;2023-10-19T01:48:38;12.60;99.90
15288;DHT22;7745;48.708;9.026;2023-10-19T01:51:07;12.60;99.90
15288;DHT22;7745;48.708;9.026;2023-10-19T01:53:36;12.60;99.90
15288;DHT22;7745;48.708;9.026;2023-10-19T01:56:07;12.60;99.90
15288;DHT22;7745;48.708;9.026;2023-10-19T01:58:35;12.60;99.90
15288;DHT22;7745;48.708;9.026;2023-10-19T02:01:03;13.10;99.90
15288;DHT22;7745;48.708;9.026;2023-10-19T02:03:34;12.50;99.90
15288;DHT22;7745;48.708;9.026;2023-10-19T02:06:02;12.50;99.90
15288;DHT22;7745;48.708;9.026;2023-10-19T02:08:37;12.40;99.90
15288;DHT22;7745;48.708;9.026;2023-10-19T02:11:06;12.60;99.90
15288;DHT22;7745;48.708;9.026;2023-10-19T02:13:42;12.50;99.90
15288;DHT22;7745;48.708;9.026;2023-10-19T02:16:09;12.30;99.90
15288;DHT22;7745;48.708;9.026;2023-10-19T02:18:35;12.30;99.90
15288;DHT22;7745;48.708;9.026;2023-10-19T02:21:03;12.30;99.90
15288;DHT22;7745;48.708;9.026;2023-10-19T02:23:31;12.20;99.90
15288;DHT22;7745;48.708;9.026;2023-10-19T02:25:59;12.10;99.90
15288;DHT22;7745;48.708;9.026;2023-10-19T02:28:27;12.20;99.90
15288;DHT22;7745;48.708;9.026;2023-10-19T02:30:58;12.30;99.90
15288;DHT22;7745;48.708;9.026;2023-10-19T02:33:29;12.30;99.90
15288;DHT22;7745;48.708;9.026;2023-10-19T02:35:56;11.90;99.90
15288;DHT22;7745;48.708;9.026;2023-10-19T02:38:23;11.80;99.90
15288;DHT22;7745;48.708;9.026;2023-10-19T02:40:49;11.70;99.90
15288;DHT22;7745;48.708;9.026;2023-10-19T02:43:16;11.70;99.90
15288;DHT22;7745;48.708;9.026;2023-10-19T02:45:44;11.90;99.90
15288;DHT22;7745;48.708;9.026;2023-10-19T02:48:13;11.50;99.90
15288;DHT22;7745;48.708;9.026;2023-10-19T02:50:39;11.50;99.90
15288;DHT22;7745;48.708;9.026;2023-10-19T02:53:06;11.50;99.90
15288;DHT22;7745;48.708;9.026;2023-10-19T02:55:33;11.60;99.90
15288;DHT22;7745;48.708;9.026;2023-10-19T02:58:00;11.40;99.90
15288;DHT22;7745;48.708;9.026;2023-10-19T03:00:25;11.30;99.90
15288;DHT22;7745;48.708;9.026;2023-10-19T03:02:59;11.40;99.90
15288;DHT22;7745;48.708;9.026;2023-10-19T03:05:25;11.30;99.90
15288;DHT22;7745;48.708;9.026;2023-10-19T03:07:52;11.30;99.90
15288;DHT22;7745;48.708;9.026;2023-10-19T03:10:18;11.30;99.90
15288;DHT22;7745;48.708;9.026;2023-10-19T03:12:50;11.60;99.90
15288;DHT22;7745;48.708;9.026;2023-10-19T03:15:17;11.40;99.90
15288;DHT22;7745;48.708;9.026;2023-10-19T03:17:46;11.40;99.90
15288;DHT22;7745;48.708;9.026;2023-10-19T03:20:13;11.40;99.90
15288;DHT22;7745;48.708;9.026;2023-10-19T03:22:42;11.70;99.90
15288;DHT22;7745;48.708;9.026;2023-10-19T03:25:08;11.30;99.90
15288;DHT22;7745;48.708;9.026;2023-10-19T03:28:01;11.50;99.90
15288;DHT22;7745;48.708;9.026;2023-10-19T03:30:34;11.30;99.90
15288;DHT22;7745;48.708;9.026;2023-10-19T03:33:05;11.40;99.90
15288;DHT22;7745;48.708;9.026;2023-10-19T03:35:36;11.30;99.90
15288;DHT22;7745;48.708;9.026;2023-10-19T03:38:07;11.20;99.90
15288;DHT22;7745;48.708;9.026;2023-10-19T03:40:40;11.20;99.90
15288;DHT22;7745;48.708;9.026;2023-10-19T03:43:12;11.20;99.90
15288;DHT22;7745;48.708;9.026;2023-10-19T03:45:44;11.20;99.90
15288;DHT22;7745;48.708;9.026;2023-10-19T03:48:19;11.20;99.90
15288;DHT22;7745;48.708;9.026;2023-10-19T03:50:54;11.20;99.90
15288;DHT22;7745;48.708;9.026;2023-10-19T03:53:21;11.40;99.90
15288;DHT22;7745;48.708;9.026;2023-10-19T03:55:48;11.70;99.90
15288;DHT22;7745;48.708;9.026;2023-10-19T03:58:18;11.10;99.90
15288;DHT22;7745;48.708;9.026;2023-10-19T04:00:47;11.30;99.90
15288;DHT22;7745;48.708;9.026;2023-10-19T04:03:14;11.10;99.90
15288;DHT22;7745;48.708;9.026;2023-10-19T04:05:42;11.20;99.90
15288;DHT22;7745;48.708;9.026;2023-10-19T04:08:13;11.20;99.90
15288;DHT22;7745;48.708;9.026;2023-10-19T04:10:45;11.30;99.90
15288;DHT22;7745;48.708;9.026;2023-10-19T04:13:33;11.40;99.90
15288;DHT22;7745;48.708;9.026;2023-10-19T04:16:00;12.10;99.90
15288;DHT22;7745;48.708;9.026;2023-10-19T04:18:27;11.50;99.90
15288;DHT22;7745;48.708;9.026;2023-10-19T04:20:54;11.70;99.90
15288;DHT22;7745;48.708;9.026;2023-10-19T04:23:25;11.40;99.90
15288;DHT22;7745;48.708;9.026;2023-10-19T04:25:54;11.40;99.90
15288;DHT22;7745;48.708;9.026;2023-10-19T04:28:28;11.40;99.90
15288;DHT22;7745;48.708;9.026;2023-10-19T04:31:03;11.30;99.90
15288;DHT22;7745;48.708;9.026;2023-10-19T04:33:32;11.40;99.90
15288;DHT22;7745;48.708;9.026;2023-10-19T04:36:00;11.30;99.90
15288;DHT22;7745;48.708;9.026;2023-10-19T04:38:30;11.20;99.90
15288;DHT22;7745;48.708;9.026;2023-10-19T04:41:05;11.20;99.90
15288;DHT22;7745;48.708;9.026;2023-10-19T04:43:36;11.10;99.90
15288;DHT22;7745;48.708;9.026;2023-10-19T04:46:06;11.20;99.90
15288;DHT22;7745;48.708;9.026;2023-10-19T04:48:54;11.00;99.90
15288;DHT22;7745;48.708;9.026;2023-10-19T04:51:21;11.30;99.90
15288;DHT22;7745;48.708;9.026;2023-10-19T04:53:49;11.00;99.90
15288;DHT22;7745;48.708;9.026;2023-10-19T04:56:28;11.40;99.90
15288;DHT22;7745;48.708;9.026;2023-10-19T04:58:55;11.10;99.90
15288;DHT22;7745;48.708;9.026;2023-10-19T05:01:22;11.20;99.90
15288;DHT22;7745;48.708;9.026;2023-10-19T05:03:49;11.20;99.90
15288;DHT22;7745;48.708;9.026;2023-10-19T05:06:16;11.30;99.90
15288;DHT22;7745;48.708;9.026;2023-10-19T05:08:43;11.40;99.90
15288;DHT22;7745;48.708;9.026;2023-10-19T05:11:13;11.40;99.90
15288;DHT22;7745;48.708;9.026;2023-10-19T05:13:41;11.60;99.90
15288;DHT22;7745;48.708;9.026;2023-10-19T05:16:07;11.80;99.90
15288;DHT22;7745;48.708;9.026;2023-10-19T05:18:34;11.50;99.90
15288;DHT22;7745;48.708;9.026;2023-10-19T05:21:01;11.50;99.90
15288;DHT22;7745;48.708;9.026;2023-10-19T05:23:29;11.50;99.90
15288;DHT22;7745;48.708;9.026;2023-10-19T05:26:00;11.60;99.90
15288;DHT22;7745;48.708;9.026;2023-10-19T05:28:29;11.50;99.90
15288;DHT22;7745;48.708;9.026;2023-10-19T05:30:56;11.50;99.90
15288;DHT22;7745;48.708;9.026;2023-10-19T05:33:24;11.80;99.90
15288;DHT22;7745;48.708;9.026;2023-10-19T05:35:51;12.20;99.90
15288;DHT22;7745;48.708;9.026;2023-10-19T05:38:18;11.80;99.90
15288;DHT22;7745;48.708;9.026;2023-10-19T05:40:47;11.50;99.90
15288;DHT22;7745;48.708;9.026;2023-10-19T05:43:15;11.50;99.90
15288;DHT22;7745;48.708;9.026;2023-10-19T05:45:44;11.50;99.90
15288;DHT22;7745;48.708;9.026;2023-10-19T05:48:15;11.50;99.90
15288;DHT22;7745;48.708;9.026;2023-10-19T05:50:42;11.80;99.90
15288;DHT22;7745;48.708;9.026;2023-10-19T05:53:09;11.60;99.90
15288;DHT22;7745;48.708;9.026;2023-10-19T05:55:36;11.50;99.90
15288;DHT22;7745;48.708;9.026;2023-10-19T05:58:05;11.40;99.90
15288;DHT22;7745;48.708;9.026;2023-10-19T06:00:32;11.40;99.90
15288;DHT22;7745;48.708;9.026;2023-10-19T06:03:01;11.40;99.90
15288;DHT22;7745;48.708;9.026;2023-10-19T06:05:30;11.50;99.90
15288;DHT22;7745;48.708;9.026;2023-10-19T06:07:57;11.60;99.90
15288;DHT22;7745;48.708;9.026;2023-10-19T06:10:27;11.70;99.90
15288;DHT22;7745;48.708;9.026;2023-10-19T06:12:54;11.80;99.90
15288;DHT22;7745;48.708;9.026;2023-10-19T06:15:22;11.90;99.90
15288;DHT22;7745;48.708;9.026;2023-10-19T06:17:50;12.00;99.90
15288;DHT22;7745;48.708;9.026;2023-10-19T06:20:19;12.00;99.90
15288;DHT22;7745;48.708;9.026;2023-10-19T06:22:51;12.10;99.90
15288;DHT22;7745;48.708;9.026;2023-10-19T06:25:18;11.90;99.90
15288;DHT22;7745;48.708;9.026;2023-10-19T06:27:47;11.90;99.90
15288;DHT22;7745;48.708;9.026;2023-10-19T06:30:15;11.90;99.90
15288;DHT22;7745;48.708;9.026;2023-10-19T06:32:48;12.10;99.90
15288;DHT22;7745;48.708;9.026;2023-10-19T06:35:16;12.00;99.90
15288;DHT22;7745;48.708;9.026;2023-10-19T06:37:45;12.10;99.90
15288;DHT22;7745;48.708;9.026;2023-10-19T06:40:19;12.10;99.90
15288;DHT22;7745;48.708;9.026;2023-10-19T06:42:49;12.10;99.90
15288;DHT22;7745;48.708;9.026;2023-10-19T06:45:19;12.20;99.90
15288;DHT22;7745;48.708;9.026;2023-10-19T06:48:01;12.10;99.90
15288;DHT22;7745;48.708;9.026;2023-10-19T06:50:58;12.40;99.90
15288;DHT22;7745;48.708;9.026;2023-10-19T06:53:40;12.40;99.90
15288;DHT22;7745;48.708;9.026;2023-10-19T06:56:23;12.60;99.90
15288;DHT22;7745;48.708;9.026;2023-10-19T06:58:51;12.50;99.90
15288;DHT22;7745;48.708;9.026;2023-10-19T07:01:17;12.70;99.90
15288;DHT22;7745;48.708;9.026;2023-10-19T07:03:51;12.40;99.90
15288;DHT22;7745;48.708;9.026;2023-10-19T07:06:19;12.40;99.90
15288;DHT22;7745;48.708;9.026;2023-10-19T07:08:47;12.40;99.90
15288;DHT22;7745;48.708;9.026;2023-10-19T07:11:15;12.70;99.90
15288;DHT22;7745;48.708;9.026;2023-10-19T07:13:42;12.40;99.90
15288;DHT22;7745;48.708;9.026;2023-10-19T07:16:11;12.70;99.90
15288;DHT22;7745;48.708;9.026;2023-10-19T07:18:38;12.60;99.90
15288;DHT22;7745;48.708;9.026;2023-10-19T07:21:06;12.50;99.90
15288;DHT22;7745;48.708;9.026;2023-10-19T07:23:35;13.00;99.90
15288;DHT22;7745;48.708;9.026;2023-10-19T07:26:07;12.60;99.90
15288;DHT22;7745;48.708;9.026;2023-10-19T07:28:36;12.80;99.90
15288;DHT22;7745;48.708;9.026;2023-10-19T07:31:09;12.70;99.90
15288;DHT22;7745;48.708;9.026;2023-10-19T07:33:42;13.00;99.90
15288;DHT22;7745;48.708;9.026;2023-10-19T07:36:12;13.10;99.90
15288;DHT22;7745;48.708;9.026;2023-10-19T07:38:40;13.10;99.90
15288;DHT22;7745;48.708;9.026;2023-10-19T07:41:09;13.00;99.90
15288;DHT22;7745;48.708;9.026;2023-10-19T07:43:36;13.20;99.90
15288;DHT22;7745;48.708;9.026;2023-10-19T07:46:07;13.10;99.90
15288;DHT22;7745;48.708;9.026;2023-10-19T07:48:34;13.20;99.90
15288;DHT22;7745;48.708;9.026;2023-10-19T07:51:02;13.30;99.90
15288;DHT22;7745;48.708;9.026;2023-10-19T07:53:29;13.50;99.90
15288;DHT22;7745;48.708;9.026;2023-10-19T07:55:56;13.40;99.90
15288;DHT22;7745;48.708;9.026;2023-10-19T07:58:25;13.30;99.90
15288;DHT22;7745;48.708;9.026;2023-10-19T08:00:52;13.40;99.90
15288;DHT22;7745;48.708;9.026;2023-10-19T08:03:19;13.60;99.90
15288;DHT22;7745;48.708;9.026;2023-10-19T08:05:56;13.60;99.90
15288;DHT22;7745;48.708;9.026;2023-10-19T08:08:23;13.40;99.90
15288;DHT22;7745;48.708;9.026;2023-10-19T08:10:50;13.50;99.90
15288;DHT22;7745;48.708;9.026;2023-10-19T08:13:31;13.70;99.90
15288;DHT22;7745;48.708;9.026;2023-10-19T08:16:09;13.70;99.90
15288;DHT22;7745;48.708;9.026;2023-10-19T08:18:42;13.80;99.90
15288;DHT22;7745;48.708;9.026;2023-10-19T08:21:09;14.00;99.90
15288;DHT22;7745;48.708;9.026;2023-10-19T08:23:38;14.20;99.90
15288;DHT22;7745;48.708;9.026;2023-10-19T08:26:06;14.40;99.90
15288;DHT22;7745;48.708;9.026;2023-10-19T08:28:34;14.10;99.90
15288;DHT22;7745;48.708;9.026;2023-10-19T08:31:01;14.10;99.90
15288;DHT22;7745;48.708;9.026;2023-10-19T08:33:28;14.20;99.90
15288;DHT22;7745;48.708;9.026;2023-10-19T08:35:58;14.40;99.90
15288;DHT22;7745;48.708;9.026;2023-10-19T08:38:25;14.40;99.90
15288;DHT22;7745;48.708;9.026;2023-10-19T08:40:53;14.60;99.90
15288;DHT22;7745;48.708;9.026;2023-10-19T08:43:20;14.50;99.90
15288;DHT22;7745;48.708;9.026;2023-10-19T08:45:48;14.50;99.90
15288;DHT22;7745;48.708;9.026;2023-10-19T08:48:15;14.50;99.90
15288;DHT22;7745;48.708;9.026;2023-10-19T08:50:42;14.80;99.90
15288;DHT22;7745;48.708;9.026;2023-10-19T08:53:10;14.60;99.90
15288;DHT22;7745;48.708;9.026;2023-10-19T08:55:39;14.60;99.90
15288;DHT22;7745;48.708;9.026;2023-10-19T08:58:06;14.80;99.90
15288;DHT22;7745;48.708;9.026;2023-10-19T09:00:43;14.90;99.90
15288;DHT22;7745;48.708;9.026;2023-10-19T09:03:14;15.00;99.90
15288;DHT22;7745;48.708;9.026;2023-10-19T09:05:42;14.90;99.90
15288;DHT22;7745;48.708;9.026;2023-10-19T09:08:14;15.20;99.90
15288;DHT22;7745;48.708;9.026;2023-10-19T09:10:43;15.10;99.90
15288;DHT22;7745;48.708;9.026;2023-10-19T09:13:12;15.30;99.90
15288;DHT22;7745;48.708;9.026;2023-10-19T09:15:41;15.40;99.90
15288;DHT22;7745;48.708;9.026;2023-10-19T09:18:16;15.60;99.90
15288;DHT22;7745;48.708;9.026;2023-10-19T09:20:45;15.50;99.90
15288;DHT22;7745;48.708;9.026;2023-10-19T09:23:22;15.40;99.90
15288;DHT22;7745;48.708;9.026;2023-10-19T09:25:51;15.90;99.90
15288;DHT22;7745;48.708;9.026;2023-10-19T09:28:19;15.60;99.90
15288;DHT22;7745;48.708;9.026;2023-10-19T09:30:47;15.70;99.90
15288;DHT22;7745;48.708;9.026;2023-10-19T09:33:17;15.70;99.90
15288;DHT22;7745;48.708;9.026;2023-10-19T09:35:45;15.60;99.90
15288;DHT22;7745;48.708;9.026;2023-10-19T09:38:13;15.90;99.90
15288;DHT22;7745;48.708;9.026;2023-10-19T09:40:40;15.90;99.90
15288;DHT22;7745;48.708;9.026;2023-10-19T09:43:14;16.10;99.90
15288;DHT22;7745;48.708;9.026;2023-10-19T09:45:42;16.00;99.90
15288;DHT22;7745;48.708;9.026;2023-10-19T09:48:17;16.00;99.90
15288;DHT22;7745;48.708;9.026;2023-10-19T09:50:50;16.40;99.90
15288;DHT22;7745;48.708;9.026;2023-10-19T09:53:22;16.00;99.90
15288;DHT22;7745;48.708;9.026;2023-10-19T09:55:50;16.10;99.90
15288;DHT22;7745;48.708;9.026;2023-10-19T09:58:20;16.30;99.90
15288;DHT22;7745;48.708;9.026;2023-10-19T10:00:49;16.20;99.90
15288;DHT22;7745;48.708;9.026;2023-10-19T10:03:46;16.20;99.90
15288;DHT22;7745;48.708;9.026;2023-10-19T10:06:15;16.20;99.90
15288;DHT22;7745;48.708;9.026;2023-10-19T10:08:46;16.30;99.90
15288;DHT22;7745;48.708;9.026;2023-10-19T10:11:18;16.30;99.90
15288;DHT22;7745;48.708;9.026;2023-10-19T10:13:46;16.20;99.90
15288;DHT22;7745;48.708;9.026;2023-10-19T10:16:21;16.50;99.90
15288;DHT22;7745;48.708;9.026;2023-10-19T10:18:55;16.20;99.90
15288;DHT22;7745;48.708;9.026;2023-10-19T10:21:26;16.30;99.90
15288;DHT22;7745;48.708;9.026;2023-10-19T10:23:54;16.60;99.90
15288;DHT22;7745;48.708;9.026;2023-10-19T10:26:23;16.40;99.90
15288;DHT22;7745;48.708;9.026;2023-10-19T10:29:09;16.60;99.90
15288;DHT22;7745;48.708;9.026;2023-10-19T10:31:41;16.60;99.90
15288;DHT22;7745;48.708;9.026;2023-10-19T10:34:10;16.60;99.90
15288;DHT22;7745;48.708;9.026;2023-10-19T10:36:57;16.70;99.90
15288;DHT22;7745;48.708;9.026;2023-10-19T10:39:25;16.90;99.90
15288;DHT22;7745;48.708;9.026;2023-10-19T10:41:56;16.80;99.90
15288;DHT22;7745;48.708;9.026;2023-10-19T10:44:36;16.70;99.90
15288;DHT22;7745;48.708;9.026;2023-10-19T10:47:06;16.80;99.90
15288;DHT22;7745;48.708;9.026;2023-10-19T10:49:52;16.60;99.90
15288;DHT22;7745;48.708;9.026;2023-10-19T10:52:58;16.60;99.90
15288;DHT22;7745;48.708;9.026;2023-10-19T10:55:25;16.40;99.90
15288;DHT22;7745;48.708;9.026;2023-10-19T10:57:52;16.60;99.90
15288;DHT22;7745;48.708;9.026;2023-10-19T11:00:21;16.50;99.90
15288;DHT22;7745;48.708;9.026;2023-10-19T11:02:59;16.40;99.90
15288;DHT22;7745;48.708;9.026;2023-10-19T11:05:28;16.40;99.90
15288;DHT22;7745;48.708;9.026;2023-10-19T11:08:08;16.30;99.90
15288;DHT22;7745;48.708;9.026;2023-10-19T11:10:42;16.30;99.90
15288;DHT22;7745;48.708;9.026;2023-10-19T11:13:16;16.20;99.90
15288;DHT22;7745;48.708;9.026;2023-10-19T11:15:51;16.10;99.90
15288;DHT22;7745;48.708;9.026;2023-10-19T11:18:29;16.00;99.90
15288;DHT22;7745;48.708;9.026;2023-10-19T11:21:01;15.90;99.90
15288;DHT22;7745;48.708;9.026;2023-10-19T11:23:46;15.70;99.90
15288;DHT22;7745;48.708;9.026;2023-10-19T11:26:21;15.70;99.90
15288;DHT22;7745;48.708;9.026;2023-10-19T11:29:01;15.70;99.90
15288;DHT22;7745;48.708;9.026;2023-10-19T11:31:30;16.40;99.90
15288;DHT22;7745;48.708;9.026;2023-10-19T11:34:03;15.80;99.90
15288;DHT22;7745;48.708;9.026;2023-10-19T11:36:36;15.50;99.90
15288;DHT22;7745;48.708;9.026;2023-10-19T11:39:07;15.60;99.90
15288;DHT22;7745;48.708;9.026;2023-10-19T11:41:37;15.60;99.90
15288;DHT22;7745;48.708;9.026;2023-10-19T11:44:07;15.50;99.90
15288;DHT22;7745;48.708;9.026;2023-10-19T11:46:36;15.70;99.90
15288;DHT22;7745;48.708;9.026;2023-10-19T11:49:04;15.50;99.90
15288;DHT22;7745;48.708;9.026;2023-10-19T11:51:31;15.50;99.90
15288;DHT22;7745;48.708;9.026;2023-10-19T11:54:00;15.70;99.90
15288;DHT22;7745;48.708;9.026;2023-10-19T11:56:43;15.60;99.90
15288;DHT22;7745;48.708;9.026;2023-10-19T11:59:12;15.50;99.90
15288;DHT22;7745;48.708;9.026;2023-10-19T12:01:44;15.70;99.90
15288;DHT22;7745;48.708;9.026;2023-10-19T12:04:14;15.50;99.90
15288;DHT22;7745;48.708;9.026;2023-10-19T12:06:47;15.40;99.90
15288;DHT22;7745;48.708;9.026;2023-10-19T12:09:15;15.50;99.90
15288;DHT22;7745;48.708;9.026;2023-10-19T12:11:45;15.40;99.90
15288;DHT22;7745;48.708;9.026;2023-10-19T12:14:13;15.40;99.90
15288;DHT22;7745;48.708;9.026;2023-10-19T12:16:43;15.50;99.90
15288;DHT22;7745;48.708;9.026;2023-10-19T12:19:13;15.30;99.90
15288;DHT22;7745;48.708;9.026;2023-10-19T12:21:44;15.90;99.90
15288;DHT22;7745;48.708;9.026;2023-10-19T12:24:16;15.60;99.90
15288;DHT22;7745;48.708;9.026;2023-10-19T12:26:43;15.20;99.90
15288;DHT22;7745;48.708;9.026;2023-10-19T12:29:13;15.30;99.90
15288;DHT22;7745;48.708;9.026;2023-10-19T12:31:43;15.30;99.90
15288;DHT22;7745;48.708;9.026;2023-10-19T12:34:10;15.40;99.90
15288;DHT22;7745;48.708;9.026;2023-10-19T12:36:42;15.30;99.90
15288;DHT22;7745;48.708;9.026;2023-10-19T12:39:12;15.50;99.90
15288;DHT22;7745;48.708;9.026;2023-10-19T12:42:01;15.20;99.90
15288;DHT22;7745;48.708;9.026;2023-10-19T12:44:29;15.20;99.90
15288;DHT22;7745;48.708;9.026;2023-10-19T12:47:04;15.40;99.90
15288;DHT22;7745;48.708;9.026;2023-10-19T12:49:35;15.20;99.90
15288;DHT22;7745;48.708;9.026;2023-10-19T12:52:02;15.10;99.90
15288;DHT22;7745;48.708;9.026;2023-10-19T12:54:32;15.20;99.90
15288;DHT22;7745;48.708;9.026;2023-10-19T12:57:02;15.80;99.90
15288;DHT22;7745;48.708;9.026;2023-10-19T12:59:33;15.30;99.90
15288;DHT22;7745;48.708;9.026;2023-10-19T13:02:10;15.80;99.90
15288;DHT22;7745;48.708;9.026;2023-10-19T13:04:40;15.20;99.90
15288;DHT22;7745;48.708;9.026;2023-10-19T13:07:14;15.20;99.90
15288;DHT22;7745;48.708;9.026;2023-10-19T13:09:44;15.10;99.90
15288;DHT22;7745;48.708;9.026;2023-10-19T13:12:13;15.20;99.90
15288;DHT22;7745;48.708;9.026;2023-10-19T13:14:41;15.30;99.90
15288;DHT22;7745;48.708;9.026;2023-10-19T13:17:10;15.20;99.90
15288;DHT22;7745;48.708;9.026;2023-10-19T13:19:42;15.30;99.90
15288;DHT22;7745;48.708;9.026;2023-10-19T13:22:09;15.40;99.90
15288;DHT22;7745;48.708;9.026;2023-10-19T13:24:38;15.40;99.90
15288;DHT22;7745;48.708;9.026;2023-10-19T13:27:14;15.40;99.90
15288;DHT22;7745;48.708;9.026;2023-10-19T13:29:42;15.40;99.90
15288;DHT22;7745;48.708;9.026;2023-10-19T13:32:33;15.40;99.90
15288;DHT22;7745;48.708;9.026;2023-10-19T13:35:09;15.40;99.90
15288;DHT22;7745;48.708;9.026;2023-10-19T13:37:40;15.60;99.90
15288;DHT22;7745;48.708;9.026;2023-10-19T13:40:10;15.50;99.90
15288;DHT22;7745;48.708;9.026;2023-10-19T13:42:56;15.40;99.90
15288;DHT22;7745;48.708;9.026;2023-10-19T13:45:37;15.40;99.90
15288;DHT22;7745;48.708;9.026;2023-10-19T13:48:21;15.40;99.90
15288;DHT22;7745;48.708;9.026;2023-10-19T13:50:48;15.30;99.90
15288;DHT22;7745;48.708;9.026;2023-10-19T13:53:17;15.30;99.90
15288;DHT22;7745;48.708;9.026;2023-10-19T13:59:15;15.40;99.90
15288;DHT22;7745;48.708;9.026;2023-10-19T14:01:42;15.40;99.90
15288;DHT22;7745;48.708;9.026;2023-10-19T14:04:17;15.40;99.90
15288;DHT22;7745;48.708;9.026;2023-10-19T14:06:44;15.50;99.90
15288;DHT22;7745;48.708;9.026;2023-10-19T14:09:15;15.60;99.90
15288;DHT22;7745;48.708;9.026;2023-10-19T14:11:45;15.20;99.90
15288;DHT22;7745;48.708;9.026;2023-10-19T14:14:34;15.50;99.90
15288;DHT22;7745;48.708;9.026;2023-10-19T14:20:40;15.40;99.90
15288;DHT22;7745;48.708;9.026;2023-10-19T14:23:07;15.40;99.90
15288;DHT22;7745;48.708;9.026;2023-10-19T14:25:38;15.50;99.90
15288;DHT22;7745;48.708;9.026;2023-10-19T14:28:07;15.40;99.90
15288;DHT22;7745;48.708;9.026;2023-10-19T14:30:36;15.30;99.90
15288;DHT22;7745;48.708;9.026;2023-10-19T14:33:04;15.30;99.90
15288;DHT22;7745;48.708;9.026;2023-10-19T14:35:35;15.20;99.90
15288;DHT22;7745;48.708;9.026;2023-10-19T14:38:05;15.20;99.90
15288;DHT22;7745;48.708;9.026;2023-10-19T14:40:32;15.20;99.90
15288;DHT22;7745;48.708;9.026;2023-10-19T14:42:58;15.20;99.90
15288;DHT22;7745;48.708;9.026;2023-10-19T14:45:27;15.30;99.90
15288;DHT22;7745;48.708;9.026;2023-10-19T14:47:57;15.20;99.90
15288;DHT22;7745;48.708;9.026;2023-10-19T14:50:25;15.00;99.90
15288;DHT22;7745;48.708;9.026;2023-10-19T14:52:53;15.30;99.90
15288;DHT22;7745;48.708;9.026;2023-10-19T14:55:21;15.10;99.90
15288;DHT22;7745;48.708;9.026;2023-10-19T14:57:49;15.10;99.90
15288;DHT22;7745;48.708;9.026;2023-10-19T15:00:19;15.10;99.90
15288;DHT22;7745;48.708;9.026;2023-10-19T15:02:51;15.10;99.90
15288;DHT22;7745;48.708;9.026;2023-10-19T15:05:22;15.00;99.90
15288;DHT22;7745;48.708;9.026;2023-10-19T15:07:51;15.10;99.90
15288;DHT22;7745;48.708;9.026;2023-10-19T15:10:19;15.10;99.90
15288;DHT22;7745;48.708;9.026;2023-10-19T15:12:46;15.10;99.90
15288;DHT22;7745;48.708;9.026;2023-10-19T15:15:13;15.10;99.90
15288;DHT22;7745;48.708;9.026;2023-10-19T15:17:41;15.00;99.90
15288;DHT22;7745;48.708;9.026;2023-10-19T15:20:11;15.00;99.90
15288;DHT22;7745;48.708;9.026;2023-10-19T15:22:39;15.00;99.90
15288;DHT22;7745;48.708;9.026;2023-10-19T15:25:06;15.00;99.90
15288;DHT22;7745;48.708;9.026;2023-10-19T15:27:36;15.00;99.90
15288;DHT22;7745;48.708;9.026;2023-10-19T15:30:04;15.10;99.90
15288;DHT22;7745;48.708;9.026;2023-10-19T15:32:31;15.00;99.90
15288;DHT22;7745;48.708;9.026;2023-10-19T15:34:59;15.20;99.90
15288;DHT22;7745;48.708;9.026;2023-10-19T15:37:26;15.00;99.90
15288;DHT22;7745;48.708;9.026;2023-10-19T15:39:55;15.00;99.90
15288;DHT22;7745;48.708;9.026;2023-10-19T15:42:22;15.00;99.90
15288;DHT22;7745;48.708;9.026;2023-10-19T15:44:50;15.10;99.90
15288;DHT22;7745;48.708;9.026;2023-10-19T15:47:17;14.90;99.90
15288;DHT22;7745;48.708;9.026;2023-10-19T15:49:49;14.90;99.90
15288;DHT22;7745;48.708;9.026;2023-10-19T15:52:18;14.90;99.90
15288;DHT22;7745;48.708;9.026;2023-10-19T15:54:46;14.90;99.90
15288;DHT22;7745;48.708;9.026;2023-10-19T15:57:22;14.80;99.90
15288;DHT22;7745;48.708;9.026;2023-10-19T15:59:50;14.80;99.90
15288;DHT22;7745;48.708;9.026;2023-10-19T16:02:17;14.70;99.90
15288;DHT22;7745;48.708;9.026;2023-10-19T16:04:44;14.70;99.90
15288;DHT22;7745;48.708;9.026;2023-10-19T16:07:12;14.70;99.90
15288;DHT22;7745;48.708;9.026;2023-10-19T16:09:40;14.80;99.90
15288;DHT22;7745;48.708;9.026;2023-10-19T16:12:07;14.60;99.90
15288;DHT22;7745;48.708;9.026;2023-10-19T16:14:36;14.70;99.90